Vg 117 Kungsvik — SBTH — position and weather

sailwx.info

Track history (hours):
 
Tides and Currents Weather Stations Pressure Air Temp Water Temp Dewpoint Dewpoint Depression Visibility Wind Speed Wind Dir Waves Ship Positions

Vg 117 Kungsvik

Last reported at 2015-Apr-13 19:28 UTC. Time now 2015-Apr-18 04:51 UTC.
Position N 55°33' E 014°22'.

Length 17 m.

Type: Fishing. MMSI: 266137000.

Date/timePositionNaut miles runAvg speedWind from/ knotsBaromVisibWave heightAir tempDewpointWater temp
2015-Apr-13 19:28N 55°33' E 014°22'0 0.0
2015-Apr-13 18:22N 55°33' E 014°22'0 0.0
2015-Apr-13 15:10N 55°33' E 014°22'0 0.0
2015-Apr-13 14:28N 55°33' E 014°22'0 0.0
2015-Apr-13 13:28N 55°33' E 014°22'0 0.0
2015-Apr-13 12:28N 55°33' E 014°22'0 0.0
2015-Apr-13 11:10N 55°33' E 014°22'0 0.0
2015-Apr-13 10:16N 55°33' E 014°22'0 0.0
2015-Apr-13 09:28N 55°33' E 014°22'0 0.0
2015-Apr-13 08:28N 55°33' E 014°22'0 0.0
2015-Apr-13 02:22N 55°33' E 014°22'0 0.0
2015-Apr-11 01:30N 55°33' E 014°22'0 0.0
2015-Apr-10 21:24N 55°33' E 014°22'0 0.0
2015-Apr-10 20:18N 55°33' E 014°22'0 0.0
2015-Apr-10 17:24N 55°33' E 014°22'0 0.0
2015-Apr-10 15:17N 55°33' E 014°21'2 2.2
2015-Apr-10 14:31N 55°33' E 014°24'4 4.4
2015-Apr-10 13:33N 55°31' E 014°31'6 6.3
2015-Apr-10 12:31N 55°28' E 014°41'1 1.4
2015-Apr-10 11:33N 55°27' E 014°43'1 1.4
2015-Apr-10 10:33N 55°28' E 014°41'3 2.7
2015-Apr-10 09:32N 55°26' E 014°37'1 1.3
2015-Apr-10 08:30N 55°25' E 014°39'1 1.4
2015-Apr-10 07:33N 55°26' E 014°36'3 2.7
2015-Apr-10 06:30N 55°27' E 014°41'1 1.2
2015-Apr-10 05:31N 55°28' E 014°40'3 2.9
2015-Apr-10 04:33N 55°26' E 014°37'4 4.2
2015-Apr-10 03:33N 55°28' E 014°30'7 1.3
2015-Apr-09 22:09N 55°33' E 014°22'0 0.0
2015-Apr-09 18:33N 55°33' E 014°22'0 0.0
2015-Apr-09 17:27N 55°33' E 014°21'1 1.1
2015-Apr-09 16:33N 55°33' E 014°23'5 5.4
2015-Apr-09 15:33N 55°30' E 014°31'6 5.8
2015-Apr-09 14:33N 55°28' E 014°41'1 1.1
2015-Apr-09 13:33N 55°28' E 014°43'2 2.2
2015-Apr-09 12:34N 55°27' E 014°39'2 1.6
2015-Apr-09 11:32N 55°26' E 014°37'2 2.4
2015-Apr-09 10:33N 55°27' E 014°40'3 2.6
2015-Apr-09 09:33N 55°28' E 014°45'3 2.7
2015-Apr-09 08:33N 55°26' E 014°49'2 2.1
2015-Apr-09 07:32N 55°25' E 014°52'2 2.1
2015-Apr-09 06:33N 55°26' E 014°48'3 2.8
2015-Apr-09 05:33N 55°27' E 014°44'3 2.8
2015-Apr-09 04:32N 55°27' E 014°39'5 5.1
2015-Apr-09 03:34N 55°29' E 014°31'7 6.7
2015-Apr-09 02:33N 55°33' E 014°21'0 0.0
2015-Apr-08 00:28N 55°33' E 014°22'0 0.0
2015-Apr-07 23:22N 55°33' E 014°22'0 0.0
2015-Apr-07 22:22N 55°33' E 014°22'0 0.0
2015-Apr-07 21:22N 55°33' E 014°22'0 0.0
2015-Apr-07 20:28N 55°33' E 014°22'0 0.0
2015-Apr-07 18:33N 55°33' E 014°21'0 0.1
2015-Apr-07 17:26N 55°33' E 014°21'4 4.1
2015-Apr-07 16:33N 55°35' E 014°28'7 6.6
2015-Apr-07 15:33N 55°36' E 014°39'2 1.7
2015-Apr-07 14:33N 55°36' E 014°36'2 1.9
2015-Apr-07 13:33N 55°35' E 014°38'2 1.8
2015-Apr-07 12:16N 55°35' E 014°42'1 2.0
2015-Apr-07 11:33N 55°35' E 014°45'2 2.2
2015-Apr-07 10:33N 55°36' E 014°49'6 2.6
2015-Apr-07 08:24N 55°36' E 014°39'2 1.8
2015-Apr-07 07:22N 55°36' E 014°36'2 2.4
2015-Apr-07 06:32N 55°35' E 014°38'2 1.5
2015-Apr-07 05:28N 55°36' E 014°41'8 4.2
2015-Apr-07 03:33N 55°34' E 014°27'3 1.6
2015-Apr-07 01:33N 55°33' E 014°22'0 0.0
2015-Apr-07 00:27N 55°33' E 014°22'0 0.0
2015-Apr-06 23:33N 55°33' E 014°22'0 0.0
2015-Apr-06 22:33N 55°33' E 014°22'0 0.0
2015-Apr-06 21:33N 55°33' E 014°22'0 0.0
2015-Apr-06 20:33N 55°33' E 014°22'0 0.0
2015-Apr-06 19:33N 55°33' E 014°22'0 0.0
2015-Apr-06 18:15N 55°33' E 014°22'0 0.0
2015-Apr-06 17:28N 55°33' E 014°21'1 1.1
2015-Apr-06 16:30N 55°34' E 014°23'3 3.6
2015-Apr-06 15:33N 55°34' E 014°29'4 4.1
2015-Apr-06 14:32N 55°34' E 014°37'4 3.9
2015-Apr-06 13:33N 55°34' E 014°44'3 1.4
2015-Apr-06 11:32N 55°34' E 014°48'3 2.5
2015-Apr-06 10:09N 55°35' E 014°42'2 2.6
2015-Apr-06 09:33N 55°34' E 014°45'3 2.8
2015-Apr-06 08:33N 55°34' E 014°50'15 0.7
2015-Apr-05 12:11N 55°34' E 014°23'1 0.5
2015-Apr-05 10:16N 55°33' E 014°22'0 0.0
2015-Apr-05 09:28N 55°33' E 014°22'0 0.0
2015-Apr-05 08:28N 55°33' E 014°22'0 0.0
2015-Apr-05 02:22N 55°33' E 014°22'0 0.0
2015-Apr-05 01:22N 55°33' E 014°22'0 0.0
2015-Apr-05 00:28N 55°33' E 014°22'0 0.0
2015-Apr-04 23:22N 55°33' E 014°22'0 0.0
2015-Apr-04 21:16N 55°33' E 014°22'0 0.0
2015-Apr-04 20:16N 55°33' E 014°22'0 0.0
2015-Apr-04 15:28N 55°33' E 014°22'0 0.0
2015-Apr-04 14:10N 55°33' E 014°22'0 0.0
2015-Apr-04 13:22N 55°33' E 014°22'0 0.0
2015-Apr-04 12:28N 55°33' E 014°22'0 0.0
2015-Apr-04 11:16N 55°33' E 014°22'0 0.0
2015-Apr-04 10:28N 55°33' E 014°22'0 0.0
2015-Apr-04 09:28N 55°33' E 014°22'0 0.0
2015-Apr-04 08:16N 55°33' E 014°22'0 0.0
2015-Apr-04 07:28N 55°33' E 014°22'0 0.0
2015-Apr-04 05:28N 55°33' E 014°22'0 0.0
2015-Apr-04 04:28N 55°33' E 014°22'0 0.0
2015-Apr-04 03:28N 55°33' E 014°22'0 0.0
2015-Apr-04 01:22N 55°33' E 014°22'0 0.0
2015-Apr-04 00:28N 55°33' E 014°22'0 0.0
2015-Apr-03 23:22N 55°33' E 014°22'0 0.0
2015-Apr-03 22:28N 55°33' E 014°22'0 0.0
2015-Apr-03 21:28N 55°33' E 014°22'0 0.0
2015-Apr-03 19:28N 55°33' E 014°22'  
Track history (hours):
 
Tides and Currents Weather Stations Pressure Air Temp Water Temp Dewpoint Dewpoint Depression Visibility Wind Speed Wind Dir Waves Ship Positions

Vg 117 Kungsvik

Last reported at 2015-Apr-13 19:28 UTC. Time now 2015-Apr-18 04:51 UTC.
Position N 55°33' E 014°22'.

Length 17 m.

Type: Fishing. MMSI: 266137000.

Date/timePositionNaut miles runAvg speedWind from/ knotsBaromVisibWave heightAir tempDewpointWater temp
2015-Apr-13 19:28N 55°33' E 014°22'0 0.0
2015-Apr-13 18:22N 55°33' E 014°22'0 0.0
2015-Apr-13 15:10N 55°33' E 014°22'0 0.0
2015-Apr-13 14:28N 55°33' E 014°22'0 0.0
2015-Apr-13 13:28N 55°33' E 014°22'0 0.0
2015-Apr-13 12:28N 55°33' E 014°22'0 0.0
2015-Apr-13 11:10N 55°33' E 014°22'0 0.0
2015-Apr-13 10:16N 55°33' E 014°22'0 0.0
2015-Apr-13 09:28N 55°33' E 014°22'0 0.0
2015-Apr-13 08:28N 55°33' E 014°22'0 0.0
2015-Apr-13 02:22N 55°33' E 014°22'0 0.0
2015-Apr-11 01:30N 55°33' E 014°22'0 0.0
2015-Apr-10 21:24N 55°33' E 014°22'0 0.0
2015-Apr-10 20:18N 55°33' E 014°22'0 0.0
2015-Apr-10 17:24N 55°33' E 014°22'0 0.0
2015-Apr-10 15:17N 55°33' E 014°21'2 2.2
2015-Apr-10 14:31N 55°33' E 014°24'4 4.4
2015-Apr-10 13:33N 55°31' E 014°31'6 6.3
2015-Apr-10 12:31N 55°28' E 014°41'1 1.4
2015-Apr-10 11:33N 55°27' E 014°43'1 1.4
2015-Apr-10 10:33N 55°28' E 014°41'3 2.7
2015-Apr-10 09:32N 55°26' E 014°37'1 1.3
2015-Apr-10 08:30N 55°25' E 014°39'1 1.4
2015-Apr-10 07:33N 55°26' E 014°36'3 2.7
2015-Apr-10 06:30N 55°27' E 014°41'1 1.2
2015-Apr-10 05:31N 55°28' E 014°40'3 2.9
2015-Apr-10 04:33N 55°26' E 014°37'4 4.2
2015-Apr-10 03:33N 55°28' E 014°30'7 1.3
2015-Apr-09 22:09N 55°33' E 014°22'0 0.0
2015-Apr-09 18:33N 55°33' E 014°22'0 0.0
2015-Apr-09 17:27N 55°33' E 014°21'1 1.1
2015-Apr-09 16:33N 55°33' E 014°23'5 5.4
2015-Apr-09 15:33N 55°30' E 014°31'6 5.8
2015-Apr-09 14:33N 55°28' E 014°41'1 1.1
2015-Apr-09 13:33N 55°28' E 014°43'2 2.2
2015-Apr-09 12:34N 55°27' E 014°39'2 1.6
2015-Apr-09 11:32N 55°26' E 014°37'2 2.4
2015-Apr-09 10:33N 55°27' E 014°40'3 2.6
2015-Apr-09 09:33N 55°28' E 014°45'3 2.7
2015-Apr-09 08:33N 55°26' E 014°49'2 2.1
2015-Apr-09 07:32N 55°25' E 014°52'2 2.1
2015-Apr-09 06:33N 55°26' E 014°48'3 2.8
2015-Apr-09 05:33N 55°27' E 014°44'3 2.8
2015-Apr-09 04:32N 55°27' E 014°39'5 5.1
2015-Apr-09 03:34N 55°29' E 014°31'7 6.7
2015-Apr-09 02:33N 55°33' E 014°21'0 0.0
2015-Apr-08 00:28N 55°33' E 014°22'0 0.0
2015-Apr-07 23:22N 55°33' E 014°22'0 0.0
2015-Apr-07 22:22N 55°33' E 014°22'0 0.0
2015-Apr-07 21:22N 55°33' E 014°22'0 0.0
2015-Apr-07 20:28N 55°33' E 014°22'0 0.0
2015-Apr-07 18:33N 55°33' E 014°21'0 0.1
2015-Apr-07 17:26N 55°33' E 014°21'4 4.1
2015-Apr-07 16:33N 55°35' E 014°28'7 6.6
2015-Apr-07 15:33N 55°36' E 014°39'2 1.7
2015-Apr-07 14:33N 55°36' E 014°36'2 1.9
2015-Apr-07 13:33N 55°35' E 014°38'2 1.8
2015-Apr-07 12:16N 55°35' E 014°42'1 2.0
2015-Apr-07 11:33N 55°35' E 014°45'2 2.2
2015-Apr-07 10:33N 55°36' E 014°49'6 2.6
2015-Apr-07 08:24N 55°36' E 014°39'2 1.8
2015-Apr-07 07:22N 55°36' E 014°36'2 2.4
2015-Apr-07 06:32N 55°35' E 014°38'2 1.5
2015-Apr-07 05:28N 55°36' E 014°41'8 4.2
2015-Apr-07 03:33N 55°34' E 014°27'3 1.6
2015-Apr-07 01:33N 55°33' E 014°22'0 0.0
2015-Apr-07 00:27N 55°33' E 014°22'0 0.0
2015-Apr-06 23:33N 55°33' E 014°22'0 0.0
2015-Apr-06 22:33N 55°33' E 014°22'0 0.0
2015-Apr-06 21:33N 55°33' E 014°22'0 0.0
2015-Apr-06 20:33N 55°33' E 014°22'0 0.0
2015-Apr-06 19:33N 55°33' E 014°22'0 0.0
2015-Apr-06 18:15N 55°33' E 014°22'0 0.0
2015-Apr-06 17:28N 55°33' E 014°21'1 1.1
2015-Apr-06 16:30N 55°34' E 014°23'3 3.6
2015-Apr-06 15:33N 55°34' E 014°29'4 4.1
2015-Apr-06 14:32N 55°34' E 014°37'4 3.9
2015-Apr-06 13:33N 55°34' E 014°44'3 1.4
2015-Apr-06 11:32N 55°34' E 014°48'3 2.5
2015-Apr-06 10:09N 55°35' E 014°42'2 2.6
2015-Apr-06 09:33N 55°34' E 014°45'3 2.8
2015-Apr-06 08:33N 55°34' E 014°50'15 0.7
2015-Apr-05 12:11N 55°34' E 014°23'1 0.5
2015-Apr-05 10:16N 55°33' E 014°22'0 0.0
2015-Apr-05 09:28N 55°33' E 014°22'0 0.0
2015-Apr-05 08:28N 55°33' E 014°22'0 0.0
2015-Apr-05 02:22N 55°33' E 014°22'0 0.0
2015-Apr-05 01:22N 55°33' E 014°22'0 0.0
2015-Apr-05 00:28N 55°33' E 014°22'0 0.0
2015-Apr-04 23:22N 55°33' E 014°22'0 0.0
2015-Apr-04 21:16N 55°33' E 014°22'0 0.0
2015-Apr-04 20:16N 55°33' E 014°22'0 0.0
2015-Apr-04 15:28N 55°33' E 014°22'0 0.0
2015-Apr-04 14:10N 55°33' E 014°22'0 0.0
2015-Apr-04 13:22N 55°33' E 014°22'0 0.0
2015-Apr-04 12:28N 55°33' E 014°22'0 0.0
2015-Apr-04 11:16N 55°33' E 014°22'0 0.0
2015-Apr-04 10:28N 55°33' E 014°22'0 0.0
2015-Apr-04 09:28N 55°33' E 014°22'0 0.0
2015-Apr-04 08:16N 55°33' E 014°22'0 0.0
2015-Apr-04 07:28N 55°33' E 014°22'0 0.0
2015-Apr-04 05:28N 55°33' E 014°22'0 0.0
2015-Apr-04 04:28N 55°33' E 014°22'0 0.0
2015-Apr-04 03:28N 55°33' E 014°22'0 0.0
2015-Apr-04 01:22N 55°33' E 014°22'0 0.0
2015-Apr-04 00:28N 55°33' E 014°22'0 0.0
2015-Apr-03 23:22N 55°33' E 014°22'0 0.0
2015-Apr-03 22:28N 55°33' E 014°22'0 0.0
2015-Apr-03 21:28N 55°33' E 014°22'0 0.0
2015-Apr-03 19:28N 55°33' E 014°22'  

Dump ship's entire track history